sensor_id;sensor_type;location;lat;lon;timestamp;P1;durP1;ratioP1;P2;durP2;ratioP2
68655;SDS011;55638;51.122;13.606;2023-02-28T09:19:13;9.55;;;7.45;;
68655;SDS011;55638;51.122;13.606;2023-02-28T09:20:45;11.05;;;8.07;;
68655;SDS011;55638;51.122;13.606;2023-02-28T09:22:17;11.10;;;9.02;;
68655;SDS011;55638;51.122;13.606;2023-02-28T09:23:49;12.38;;;9.32;;
68655;SDS011;55638;51.122;13.606;2023-02-28T09:25:21;12.18;;;9.55;;
68655;SDS011;55638;51.122;13.606;2023-02-28T09:26:53;11.63;;;9.90;;
68655;SDS011;55638;51.122;13.606;2023-02-28T09:28:35;10.95;;;9.52;;
68655;SDS011;55638;51.122;13.606;2023-02-28T09:30:08;10.73;;;9.10;;
68655;SDS011;55638;51.122;13.606;2023-02-28T09:31:41;11.77;;;9.10;;
68655;SDS011;55638;51.122;13.606;2023-02-28T09:33:13;10.52;;;8.50;;
68655;SDS011;55638;51.122;13.606;2023-02-28T09:34:45;13.18;;;8.55;;
68655;SDS011;55638;51.122;13.606;2023-02-28T09:36:17;10.68;;;9.48;;
68655;SDS011;55638;51.122;13.606;2023-02-28T09:37:50;12.27;;;9.77;;
68655;SDS011;55638;51.122;13.606;2023-02-28T09:39:25;12.30;;;9.52;;
68655;SDS011;55638;51.122;13.606;2023-02-28T09:40:59;11.10;;;9.40;;
68655;SDS011;55638;51.122;13.606;2023-02-28T09:42:33;10.77;;;8.73;;
68655;SDS011;55638;51.122;13.606;2023-02-28T09:44:05;10.43;;;8.70;;
68655;SDS011;55638;51.122;13.606;2023-02-28T09:45:40;11.65;;;7.95;;
68655;SDS011;55638;51.122;13.606;2023-02-28T09:47:33;8.48;;;7.47;;
68655;SDS011;55638;51.122;13.606;2023-02-28T09:49:10;9.82;;;7.82;;
68655;SDS011;55638;51.122;13.606;2023-02-28T09:50:49;10.18;;;7.22;;
68655;SDS011;55638;51.122;13.606;2023-02-28T09:52:31;9.65;;;7.72;;
68655;SDS011;55638;51.122;13.606;2023-02-28T09:54:04;8.40;;;7.10;;
68655;SDS011;55638;51.122;13.606;2023-02-28T09:59:09;7.97;;;6.03;;
68655;SDS011;55638;51.122;13.606;2023-02-28T10:00:41;9.02;;;6.78;;
68655;SDS011;55638;51.122;13.606;2023-02-28T10:04:28;7.78;;;6.10;;
68655;SDS011;55638;51.122;13.606;2023-02-28T10:06:17;7.10;;;5.97;;
68655;SDS011;55638;51.122;13.606;2023-02-28T10:09:39;7.30;;;6.43;;
68655;SDS011;55638;51.122;13.606;2023-02-28T10:11:12;7.53;;;5.65;;
68655;SDS011;55638;51.122;13.606;2023-02-28T10:12:48;7.00;;;6.30;;
68655;SDS011;55638;51.122;13.606;2023-02-28T10:14:24;8.98;;;7.18;;
68655;SDS011;55638;51.122;13.606;2023-02-28T10:16:01;8.43;;;7.13;;
68655;SDS011;55638;51.122;13.606;2023-02-28T10:17:39;7.80;;;6.43;;
68655;SDS011;55638;51.122;13.606;2023-02-28T10:19:39;7.38;;;6.20;;
68655;SDS011;55638;51.122;13.606;2023-02-28T10:21:27;9.25;;;6.82;;
68655;SDS011;55638;51.122;13.606;2023-02-28T10:24:57;6.43;;;5.57;;
68655;SDS011;55638;51.122;13.606;2023-02-28T10:26:33;8.93;;;6.18;;
68655;SDS011;55638;51.122;13.606;2023-02-28T10:29:40;10.77;;;6.53;;
68655;SDS011;55638;51.122;13.606;2023-02-28T10:31:16;7.70;;;5.90;;
68655;SDS011;55638;51.122;13.606;2023-02-28T10:32:50;7.05;;;5.35;;
68655;SDS011;55638;51.122;13.606;2023-02-28T10:34:25;7.05;;;6.15;;
68655;SDS011;55638;51.122;13.606;2023-02-28T10:35:56;6.30;;;5.65;;
68655;SDS011;55638;51.122;13.606;2023-02-28T10:37:29;6.75;;;5.45;;
68655;SDS011;55638;51.122;13.606;2023-02-28T10:39:01;6.53;;;5.80;;
68655;SDS011;55638;51.122;13.606;2023-02-28T10:40:33;8.23;;;6.22;;
68655;SDS011;55638;51.122;13.606;2023-02-28T10:42:25;7.20;;;6.15;;
68655;SDS011;55638;51.122;13.606;2023-02-28T10:44:12;10.60;;;6.82;;
68655;SDS011;55638;51.122;13.606;2023-02-28T10:45:59;7.20;;;6.30;;
68655;SDS011;55638;51.122;13.606;2023-02-28T10:47:56;7.63;;;5.80;;
68655;SDS011;55638;51.122;13.606;2023-02-28T10:49:33;7.32;;;5.97;;
68655;SDS011;55638;51.122;13.606;2023-02-28T10:51:05;8.18;;;6.72;;
68655;SDS011;55638;51.122;13.606;2023-02-28T10:52:39;8.05;;;6.28;;
68655;SDS011;55638;51.122;13.606;2023-02-28T10:54:16;8.27;;;6.70;;
68655;SDS011;55638;51.122;13.606;2023-02-28T10:57:40;9.63;;;7.38;;
68655;SDS011;55638;51.122;13.606;2023-02-28T11:00:46;10.13;;;7.80;;
68655;SDS011;55638;51.122;13.606;2023-02-28T11:02:35;10.52;;;8.15;;
68655;SDS011;55638;51.122;13.606;2023-02-28T11:04:16;9.63;;;7.57;;
68655;SDS011;55638;51.122;13.606;2023-02-28T11:05:48;9.70;;;7.45;;
68655;SDS011;55638;51.122;13.606;2023-02-28T11:07:22;10.45;;;8.00;;
68655;SDS011;55638;51.122;13.606;2023-02-28T11:09:02;9.98;;;7.50;;
68655;SDS011;55638;51.122;13.606;2023-02-28T11:10:37;9.85;;;7.63;;
68655;SDS011;55638;51.122;13.606;2023-02-28T11:12:26;8.80;;;7.32;;
68655;SDS011;55638;51.122;13.606;2023-02-28T11:14:27;8.75;;;6.70;;
68655;SDS011;55638;51.122;13.606;2023-02-28T11:16:05;9.90;;;7.88;;
68655;SDS011;55638;51.122;13.606;2023-02-28T11:17:40;9.00;;;6.72;;
68655;SDS011;55638;51.122;13.606;2023-02-28T11:19:23;8.82;;;7.40;;
68655;SDS011;55638;51.122;13.606;2023-02-28T11:21:15;10.35;;;7.85;;
68655;SDS011;55638;51.122;13.606;2023-02-28T11:22:50;10.32;;;7.97;;
68655;SDS011;55638;51.122;13.606;2023-02-28T11:24:30;10.77;;;8.63;;
68655;SDS011;55638;51.122;13.606;2023-02-28T11:26:07;9.05;;;7.45;;
68655;SDS011;55638;51.122;13.606;2023-02-28T11:27:44;13.00;;;8.40;;
68655;SDS011;55638;51.122;13.606;2023-02-28T11:29:25;10.93;;;8.38;;
68655;SDS011;55638;51.122;13.606;2023-02-28T11:31:03;10.57;;;8.00;;
68655;SDS011;55638;51.122;13.606;2023-02-28T11:32:48;10.80;;;7.25;;
68655;SDS011;55638;51.122;13.606;2023-02-28T11:34:23;10.15;;;7.18;;
68655;SDS011;55638;51.122;13.606;2023-02-28T11:35:58;10.32;;;8.68;;
68655;SDS011;55638;51.122;13.606;2023-02-28T11:37:41;10.95;;;8.40;;
68655;SDS011;55638;51.122;13.606;2023-02-28T11:39:13;9.48;;;7.70;;
68655;SDS011;55638;51.122;13.606;2023-02-28T11:40:48;11.07;;;8.10;;
68655;SDS011;55638;51.122;13.606;2023-02-28T11:42:30;11.35;;;8.65;;
68655;SDS011;55638;51.122;13.606;2023-02-28T11:50:37;12.95;;;9.27;;
68655;SDS011;55638;51.122;13.606;2023-02-28T11:52:24;10.38;;;8.27;;
68655;SDS011;55638;51.122;13.606;2023-02-28T11:55:52;11.45;;;8.20;;
68655;SDS011;55638;51.122;13.606;2023-02-28T12:05:20;11.15;;;8.45;;
68655;SDS011;55638;51.122;13.606;2023-02-28T12:06:57;13.00;;;9.55;;
68655;SDS011;55638;51.122;13.606;2023-02-28T12:08:43;12.65;;;8.80;;
68655;SDS011;55638;51.122;13.606;2023-02-28T12:11:58;12.27;;;8.82;;
68655;SDS011;55638;51.122;13.606;2023-02-28T12:13:43;11.75;;;8.48;;
68655;SDS011;55638;51.122;13.606;2023-02-28T12:15:43;10.40;;;7.97;;
68655;SDS011;55638;51.122;13.606;2023-02-28T12:19:57;12.07;;;9.27;;
68655;SDS011;55638;51.122;13.606;2023-02-28T12:26:52;9.32;;;7.35;;
68655;SDS011;55638;51.122;13.606;2023-02-28T12:28:28;10.32;;;7.90;;
68655;SDS011;55638;51.122;13.606;2023-02-28T12:30:12;10.18;;;8.43;;
68655;SDS011;55638;51.122;13.606;2023-02-28T12:32:03;12.60;;;9.10;;
68655;SDS011;55638;51.122;13.606;2023-02-28T12:33:50;11.60;;;8.65;;
68655;SDS011;55638;51.122;13.606;2023-02-28T12:35:25;9.77;;;8.38;;
68655;SDS011;55638;51.122;13.606;2023-02-28T12:37:14;13.50;;;9.50;;
68655;SDS011;55638;51.122;13.606;2023-02-28T12:39:02;10.45;;;8.57;;
68655;SDS011;55638;51.122;13.606;2023-02-28T12:40:48;10.18;;;8.40;;
68655;SDS011;55638;51.122;13.606;2023-02-28T12:42:29;10.60;;;7.82;;
68655;SDS011;55638;51.122;13.606;2023-02-28T12:44:06;10.57;;;8.50;;
68655;SDS011;55638;51.122;13.606;2023-02-28T12:47:27;11.40;;;8.63;;
68655;SDS011;55638;51.122;13.606;2023-02-28T12:49:01;8.70;;;7.55;;
68655;SDS011;55638;51.122;13.606;2023-02-28T12:50:37;11.90;;;8.63;;
68655;SDS011;55638;51.122;13.606;2023-02-28T12:52:10;10.95;;;8.32;;
68655;SDS011;55638;51.122;13.606;2023-02-28T12:53:59;11.30;;;8.20;;
68655;SDS011;55638;51.122;13.606;2023-02-28T12:57:34;10.48;;;8.27;;
68655;SDS011;55638;51.122;13.606;2023-02-28T12:59:32;12.70;;;9.48;;
68655;SDS011;55638;51.122;13.606;2023-02-28T13:11:06;9.70;;;7.70;;
68655;SDS011;55638;51.122;13.606;2023-02-28T13:12:32;10.63;;;8.00;;
68655;SDS011;55638;51.122;13.606;2023-02-28T13:14:20;11.38;;;8.35;;
68655;SDS011;55638;51.122;13.606;2023-02-28T13:16:08;12.95;;;9.07;;
68655;SDS011;55638;51.122;13.606;2023-02-28T13:17:41;10.77;;;8.18;;
68655;SDS011;55638;51.122;13.606;2023-02-28T13:19:20;13.30;;;9.30;;
68655;SDS011;55638;51.122;13.606;2023-02-28T13:20:55;12.68;;;8.80;;
68655;SDS011;55638;51.122;13.606;2023-02-28T13:26:05;11.35;;;9.00;;
68655;SDS011;55638;51.122;13.606;2023-02-28T13:27:38;10.73;;;8.38;;
68655;SDS011;55638;51.122;13.606;2023-02-28T13:35:35;11.02;;;8.70;;
68655;SDS011;55638;51.122;13.606;2023-02-28T13:38:55;15.23;;;10.20;;
68655;SDS011;55638;51.122;13.606;2023-02-28T13:40:32;12.70;;;9.43;;
68655;SDS011;55638;51.122;13.606;2023-02-28T13:44:12;13.30;;;9.15;;
68655;SDS011;55638;51.122;13.606;2023-02-28T13:46:05;12.73;;;8.85;;
68655;SDS011;55638;51.122;13.606;2023-02-28T13:47:42;11.80;;;8.30;;
68655;SDS011;55638;51.122;13.606;2023-02-28T13:50:51;12.38;;;9.00;;
68655;SDS011;55638;51.122;13.606;2023-02-28T13:52:23;12.88;;;8.73;;
68655;SDS011;55638;51.122;13.606;2023-02-28T13:54:01;13.90;;;9.45;;
68655;SDS011;55638;51.122;13.606;2023-02-28T13:55:44;16.50;;;9.07;;
68655;SDS011;55638;51.122;13.606;2023-02-28T13:59:34;12.98;;;8.93;;
68655;SDS011;55638;51.122;13.606;2023-02-28T14:01:35;12.82;;;8.93;;
68655;SDS011;55638;51.122;13.606;2023-02-28T14:05:18;12.90;;;9.02;;
68655;SDS011;55638;51.122;13.606;2023-02-28T14:06:57;12.70;;;9.02;;
68655;SDS011;55638;51.122;13.606;2023-02-28T14:08:30;11.68;;;8.60;;
68655;SDS011;55638;51.122;13.606;2023-02-28T14:10:04;11.95;;;8.65;;
68655;SDS011;55638;51.122;13.606;2023-02-28T14:11:40;12.10;;;9.07;;
68655;SDS011;55638;51.122;13.606;2023-02-28T14:15:31;12.40;;;8.70;;
68655;SDS011;55638;51.122;13.606;2023-02-28T14:17:14;11.57;;;8.70;;
68655;SDS011;55638;51.122;13.606;2023-02-28T14:22:48;13.05;;;10.00;;
68655;SDS011;55638;51.122;13.606;2023-02-28T14:24:39;11.80;;;8.85;;
68655;SDS011;55638;51.122;13.606;2023-02-28T14:28:34;12.00;;;8.50;;
68655;SDS011;55638;51.122;13.606;2023-02-28T14:35:54;11.23;;;8.00;;
68655;SDS011;55638;51.122;13.606;2023-02-28T14:37:41;11.55;;;7.93;;
68655;SDS011;55638;51.122;13.606;2023-02-28T14:39:14;11.55;;;9.27;;
68655;SDS011;55638;51.122;13.606;2023-02-28T14:40:51;11.90;;;9.02;;
68655;SDS011;55638;51.122;13.606;2023-02-28T14:42:33;12.25;;;8.65;;
68655;SDS011;55638;51.122;13.606;2023-02-28T14:44:25;13.07;;;8.55;;
68655;SDS011;55638;51.122;13.606;2023-02-28T14:47:32;12.60;;;8.82;;
68655;SDS011;55638;51.122;13.606;2023-02-28T14:49:07;12.60;;;9.30;;
68655;SDS011;55638;51.122;13.606;2023-02-28T14:50:48;12.18;;;8.48;;
68655;SDS011;55638;51.122;13.606;2023-02-28T14:52:22;12.88;;;8.77;;
68655;SDS011;55638;51.122;13.606;2023-02-28T14:53:57;10.07;;;8.15;;
68655;SDS011;55638;51.122;13.606;2023-02-28T14:55:34;12.27;;;9.15;;
68655;SDS011;55638;51.122;13.606;2023-02-28T14:57:19;14.48;;;9.63;;
68655;SDS011;55638;51.122;13.606;2023-02-28T14:58:54;12.07;;;8.88;;
68655;SDS011;55638;51.122;13.606;2023-02-28T15:00:29;12.05;;;8.93;;
68655;SDS011;55638;51.122;13.606;2023-02-28T15:04:03;11.93;;;8.05;;
68655;SDS011;55638;51.122;13.606;2023-02-28T15:05:36;11.30;;;7.97;;
68655;SDS011;55638;51.122;13.606;2023-02-28T15:07:09;12.27;;;8.20;;
68655;SDS011;55638;51.122;13.606;2023-02-28T15:08:42;13.45;;;8.98;;
68655;SDS011;55638;51.122;13.606;2023-02-28T15:11:54;10.10;;;7.82;;
68655;SDS011;55638;51.122;13.606;2023-02-28T15:13:30;11.02;;;8.68;;
68655;SDS011;55638;51.122;13.606;2023-02-28T15:15:15;10.68;;;8.85;;
68655;SDS011;55638;51.122;13.606;2023-02-28T15:16:50;12.20;;;9.10;;
68655;SDS011;55638;51.122;13.606;2023-02-28T15:18:36;11.05;;;8.63;;
68655;SDS011;55638;51.122;13.606;2023-02-28T15:20:11;12.55;;;8.00;;
68655;SDS011;55638;51.122;13.606;2023-02-28T15:21:46;11.18;;;8.00;;
68655;SDS011;55638;51.122;13.606;2023-02-28T15:23:21;11.15;;;8.65;;
68655;SDS011;55638;51.122;13.606;2023-02-28T15:24:54;11.02;;;8.48;;
68655;SDS011;55638;51.122;13.606;2023-02-28T15:26:28;10.63;;;8.77;;
68655;SDS011;55638;51.122;13.606;2023-02-28T15:28:04;13.13;;;9.63;;
68655;SDS011;55638;51.122;13.606;2023-02-28T15:29:42;12.95;;;8.65;;
68655;SDS011;55638;51.122;13.606;2023-02-28T15:31:19;12.63;;;9.23;;
68655;SDS011;55638;51.122;13.606;2023-02-28T15:34:39;11.63;;;8.68;;
68655;SDS011;55638;51.122;13.606;2023-02-28T15:36:15;11.30;;;8.20;;
68655;SDS011;55638;51.122;13.606;2023-02-28T15:37:54;12.73;;;8.27;;
68655;SDS011;55638;51.122;13.606;2023-02-28T15:39:28;11.18;;;8.45;;
68655;SDS011;55638;51.122;13.606;2023-02-28T15:41:00;10.43;;;8.32;;
68655;SDS011;55638;51.122;13.606;2023-02-28T15:42:32;10.45;;;8.50;;
68655;SDS011;55638;51.122;13.606;2023-02-28T15:46:09;10.02;;;7.95;;
68655;SDS011;55638;51.122;13.606;2023-02-28T15:47:44;11.68;;;8.48;;
68655;SDS011;55638;51.122;13.606;2023-02-28T15:49:18;11.05;;;8.60;;
68655;SDS011;55638;51.122;13.606;2023-02-28T15:50:57;10.88;;;7.80;;
68655;SDS011;55638;51.122;13.606;2023-02-28T15:52:49;12.60;;;8.70;;
68655;SDS011;55638;51.122;13.606;2023-02-28T15:54:23;12.40;;;8.52;;
68655;SDS011;55638;51.122;13.606;2023-02-28T15:56:00;12.30;;;8.27;;
68655;SDS011;55638;51.122;13.606;2023-02-28T15:57:34;11.05;;;8.20;;
68655;SDS011;55638;51.122;13.606;2023-02-28T15:59:07;13.85;;;10.15;;
68655;SDS011;55638;51.122;13.606;2023-02-28T16:00:44;12.98;;;9.05;;
68655;SDS011;55638;51.122;13.606;2023-02-28T16:02:57;13.23;;;9.43;;
68655;SDS011;55638;51.122;13.606;2023-02-28T16:04:29;11.40;;;8.52;;
68655;SDS011;55638;51.122;13.606;2023-02-28T16:06:15;11.02;;;8.27;;
68655;SDS011;55638;51.122;13.606;2023-02-28T16:08:11;11.63;;;8.73;;
68655;SDS011;55638;51.122;13.606;2023-02-28T16:09:45;11.50;;;8.65;;
68655;SDS011;55638;51.122;13.606;2023-02-28T16:11:19;10.35;;;7.70;;
68655;SDS011;55638;51.122;13.606;2023-02-28T16:12:54;12.15;;;8.57;;
68655;SDS011;55638;51.122;13.606;2023-02-28T16:14:27;12.27;;;8.90;;
68655;SDS011;55638;51.122;13.606;2023-02-28T16:16:03;10.25;;;7.97;;
68655;SDS011;55638;51.122;13.606;2023-02-28T16:17:37;10.98;;;8.35;;
68655;SDS011;55638;51.122;13.606;2023-02-28T16:19:10;10.75;;;8.50;;
68655;SDS011;55638;51.122;13.606;2023-02-28T16:20:42;12.15;;;8.85;;
68655;SDS011;55638;51.122;13.606;2023-02-28T16:22:16;11.93;;;8.45;;
68655;SDS011;55638;51.122;13.606;2023-02-28T16:23:48;12.13;;;8.65;;
68655;SDS011;55638;51.122;13.606;2023-02-28T16:25:24;11.68;;;8.18;;
68655;SDS011;55638;51.122;13.606;2023-02-28T16:27:04;10.73;;;8.27;;
68655;SDS011;55638;51.122;13.606;2023-02-28T16:28:37;11.63;;;8.43;;
68655;SDS011;55638;51.122;13.606;2023-02-28T16:30:15;10.77;;;8.27;;
68655;SDS011;55638;51.122;13.606;2023-02-28T16:31:53;11.88;;;8.15;;
68655;SDS011;55638;51.122;13.606;2023-02-28T16:33:25;12.27;;;8.25;;
68655;SDS011;55638;51.122;13.606;2023-02-28T16:34:57;11.85;;;8.63;;
68655;SDS011;55638;51.122;13.606;2023-02-28T16:36:29;10.70;;;8.32;;
68655;SDS011;55638;51.122;13.606;2023-02-28T16:38:01;10.75;;;8.10;;
68655;SDS011;55638;51.122;13.606;2023-02-28T16:39:32;11.65;;;8.52;;
68655;SDS011;55638;51.122;13.606;2023-02-28T16:41:04;12.25;;;8.88;;
68655;SDS011;55638;51.122;13.606;2023-02-28T16:42:36;12.23;;;9.05;;
68655;SDS011;55638;51.122;13.606;2023-02-28T16:44:10;11.27;;;8.50;;
68655;SDS011;55638;51.122;13.606;2023-02-28T16:45:45;11.32;;;8.43;;
68655;SDS011;55638;51.122;13.606;2023-02-28T16:47:17;11.25;;;8.48;;
68655;SDS011;55638;51.122;13.606;2023-02-28T16:48:49;13.13;;;8.98;;
68655;SDS011;55638;51.122;13.606;2023-02-28T16:50:27;12.75;;;8.88;;
68655;SDS011;55638;51.122;13.606;2023-02-28T16:52:00;12.60;;;8.50;;
68655;SDS011;55638;51.122;13.606;2023-02-28T16:53:32;11.25;;;8.63;;
68655;SDS011;55638;51.122;13.606;2023-02-28T16:55:04;12.13;;;8.73;;
68655;SDS011;55638;51.122;13.606;2023-02-28T16:56:36;13.20;;;9.18;;
68655;SDS011;55638;51.122;13.606;2023-02-28T16:58:13;13.25;;;8.93;;
68655;SDS011;55638;51.122;13.606;2023-02-28T16:59:47;15.73;;;9.68;;
68655;SDS011;55638;51.122;13.606;2023-02-28T17:01:22;13.75;;;8.70;;
68655;SDS011;55638;51.122;13.606;2023-02-28T17:02:54;13.55;;;9.05;;
68655;SDS011;55638;51.122;13.606;2023-02-28T17:04:27;12.38;;;9.35;;
68655;SDS011;55638;51.122;13.606;2023-02-28T17:05:59;15.18;;;10.23;;
68655;SDS011;55638;51.122;13.606;2023-02-28T17:07:31;13.63;;;9.70;;
68655;SDS011;55638;51.122;13.606;2023-02-28T17:09:03;13.52;;;9.45;;
68655;SDS011;55638;51.122;13.606;2023-02-28T17:10:35;13.25;;;9.10;;
68655;SDS011;55638;51.122;13.606;2023-02-28T17:12:07;12.40;;;9.30;;
68655;SDS011;55638;51.122;13.606;2023-02-28T17:13:40;13.52;;;9.65;;
68655;SDS011;55638;51.122;13.606;2023-02-28T17:15:12;14.65;;;9.20;;
68655;SDS011;55638;51.122;13.606;2023-02-28T17:16:46;12.55;;;8.95;;
68655;SDS011;55638;51.122;13.606;2023-02-28T17:18:18;13.02;;;9.57;;
68655;SDS011;55638;51.122;13.606;2023-02-28T17:19:52;13.18;;;9.88;;
68655;SDS011;55638;51.122;13.606;2023-02-28T17:21:24;13.82;;;9.43;;
68655;SDS011;55638;51.122;13.606;2023-02-28T17:22:56;13.27;;;9.60;;
68655;SDS011;55638;51.122;13.606;2023-02-28T17:24:28;13.85;;;9.25;;
68655;SDS011;55638;51.122;13.606;2023-02-28T17:26:02;13.20;;;9.52;;
68655;SDS011;55638;51.122;13.606;2023-02-28T17:27:36;13.55;;;9.65;;
68655;SDS011;55638;51.122;13.606;2023-02-28T17:29:15;12.15;;;9.07;;
68655;SDS011;55638;51.122;13.606;2023-02-28T17:30:49;12.13;;;9.27;;
68655;SDS011;55638;51.122;13.606;2023-02-28T17:32:20;13.10;;;9.18;;
68655;SDS011;55638;51.122;13.606;2023-02-28T17:33:53;16.35;;;10.10;;
68655;SDS011;55638;51.122;13.606;2023-02-28T17:35:28;14.40;;;9.90;;
68655;SDS011;55638;51.122;13.606;2023-02-28T17:37:00;12.20;;;9.20;;
68655;SDS011;55638;51.122;13.606;2023-02-28T17:38:34;13.35;;;9.27;;
68655;SDS011;55638;51.122;13.606;2023-02-28T17:40:06;13.40;;;9.30;;
68655;SDS011;55638;51.122;13.606;2023-02-28T17:41:38;14.35;;;9.13;;
68655;SDS011;55638;51.122;13.606;2023-02-28T17:43:11;12.98;;;9.63;;
68655;SDS011;55638;51.122;13.606;2023-02-28T17:44:42;14.35;;;9.63;;
68655;SDS011;55638;51.122;13.606;2023-02-28T17:46:18;14.35;;;10.25;;
68655;SDS011;55638;51.122;13.606;2023-02-28T17:47:52;11.65;;;9.07;;
68655;SDS011;55638;51.122;13.606;2023-02-28T17:49:24;12.20;;;9.45;;
68655;SDS011;55638;51.122;13.606;2023-02-28T17:50:56;14.70;;;9.57;;
68655;SDS011;55638;51.122;13.606;2023-02-28T17:52:28;13.70;;;9.82;;
68655;SDS011;55638;51.122;13.606;2023-02-28T17:54:00;14.93;;;9.80;;
68655;SDS011;55638;51.122;13.606;2023-02-28T17:55:32;15.48;;;10.00;;
68655;SDS011;55638;51.122;13.606;2023-02-28T17:57:05;15.63;;;10.80;;
68655;SDS011;55638;51.122;13.606;2023-02-28T17:58:37;14.05;;;10.13;;
68655;SDS011;55638;51.122;13.606;2023-02-28T18:00:13;16.52;;;10.63;;
68655;SDS011;55638;51.122;13.606;2023-02-28T18:01:47;15.73;;;11.10;;
68655;SDS011;55638;51.122;13.606;2023-02-28T18:03:19;16.42;;;10.93;;
68655;SDS011;55638;51.122;13.606;2023-02-28T18:04:52;17.25;;;11.48;;
68655;SDS011;55638;51.122;13.606;2023-02-28T18:06:25;14.82;;;10.45;;
68655;SDS011;55638;51.122;13.606;2023-02-28T18:08:00;17.45;;;11.25;;
68655;SDS011;55638;51.122;13.606;2023-02-28T18:09:32;15.68;;;11.07;;
68655;SDS011;55638;51.122;13.606;2023-02-28T18:11:03;15.80;;;11.27;;
68655;SDS011;55638;51.122;13.606;2023-02-28T18:12:35;16.40;;;11.45;;
68655;SDS011;55638;51.122;13.606;2023-02-28T18:14:07;13.27;;;10.43;;
68655;SDS011;55638;51.122;13.606;2023-02-28T18:15:39;16.25;;;11.73;;
68655;SDS011;55638;51.122;13.606;2023-02-28T18:17:11;16.98;;;11.50;;
68655;SDS011;55638;51.122;13.606;2023-02-28T18:18:43;15.35;;;11.68;;
68655;SDS011;55638;51.122;13.606;2023-02-28T18:20:15;15.50;;;11.18;;
68655;SDS011;55638;51.122;13.606;2023-02-28T18:21:49;19.20;;;12.63;;
68655;SDS011;55638;51.122;13.606;2023-02-28T18:23:22;19.05;;;12.25;;
68655;SDS011;55638;51.122;13.606;2023-02-28T18:24:54;17.33;;;11.90;;
68655;SDS011;55638;51.122;13.606;2023-02-28T18:26:25;18.65;;;12.00;;
68655;SDS011;55638;51.122;13.606;2023-02-28T18:27:58;17.75;;;11.90;;
68655;SDS011;55638;51.122;13.606;2023-02-28T18:29:29;16.30;;;11.23;;
68655;SDS011;55638;51.122;13.606;2023-02-28T18:31:06;15.10;;;11.18;;
68655;SDS011;55638;51.122;13.606;2023-02-28T18:32:39;15.15;;;10.88;;
68655;SDS011;55638;51.122;13.606;2023-02-28T18:34:11;14.20;;;10.25;;
68655;SDS011;55638;51.122;13.606;2023-02-28T18:35:42;15.85;;;10.68;;
68655;SDS011;55638;51.122;13.606;2023-02-28T18:37:15;14.40;;;10.15;;
68655;SDS011;55638;51.122;13.606;2023-02-28T18:38:48;14.23;;;10.52;;
68655;SDS011;55638;51.122;13.606;2023-02-28T18:40:21;15.02;;;9.85;;
68655;SDS011;55638;51.122;13.606;2023-02-28T18:41:52;14.80;;;10.70;;
68655;SDS011;55638;51.122;13.606;2023-02-28T18:43:25;15.50;;;11.32;;
68655;SDS011;55638;51.122;13.606;2023-02-28T18:44:57;17.20;;;11.63;;
68655;SDS011;55638;51.122;13.606;2023-02-28T18:46:29;16.95;;;11.63;;
68655;SDS011;55638;51.122;13.606;2023-02-28T18:48:02;16.92;;;11.60;;
68655;SDS011;55638;51.122;13.606;2023-02-28T18:49:34;16.27;;;11.43;;
68655;SDS011;55638;51.122;13.606;2023-02-28T18:51:09;18.13;;;11.55;;
68655;SDS011;55638;51.122;13.606;2023-02-28T18:52:46;16.17;;;11.20;;
68655;SDS011;55638;51.122;13.606;2023-02-28T18:54:18;15.40;;;10.85;;
68655;SDS011;55638;51.122;13.606;2023-02-28T18:55:50;16.13;;;11.20;;
68655;SDS011;55638;51.122;13.606;2023-02-28T18:57:22;15.45;;;10.52;;
68655;SDS011;55638;51.122;13.606;2023-02-28T18:58:53;15.73;;;11.15;;
68655;SDS011;55638;51.122;13.606;2023-02-28T19:00:25;17.42;;;12.55;;
68655;SDS011;55638;51.122;13.606;2023-02-28T19:01:57;20.25;;;12.65;;
68655;SDS011;55638;51.122;13.606;2023-02-28T19:03:29;16.45;;;12.35;;
68655;SDS011;55638;51.122;13.606;2023-02-28T19:05:01;17.73;;;12.05;;
68655;SDS011;55638;51.122;13.606;2023-02-28T19:06:33;19.88;;;13.70;;
68655;SDS011;55638;51.122;13.606;2023-02-28T19:08:05;17.35;;;12.60;;
68655;SDS011;55638;51.122;13.606;2023-02-28T19:09:37;18.40;;;13.38;;
68655;SDS011;55638;51.122;13.606;2023-02-28T19:11:10;20.90;;;14.52;;
68655;SDS011;55638;51.122;13.606;2023-02-28T19:12:43;21.52;;;13.82;;
68655;SDS011;55638;51.122;13.606;2023-02-28T19:14:16;21.58;;;13.80;;
68655;SDS011;55638;51.122;13.606;2023-02-28T19:15:47;18.75;;;13.35;;
68655;SDS011;55638;51.122;13.606;2023-02-28T19:17:19;22.85;;;14.10;;
68655;SDS011;55638;51.122;13.606;2023-02-28T19:18:52;21.67;;;14.65;;
68655;SDS011;55638;51.122;13.606;2023-02-28T19:20:24;20.13;;;13.25;;
68655;SDS011;55638;51.122;13.606;2023-02-28T19:21:56;19.77;;;12.88;;
68655;SDS011;55638;51.122;13.606;2023-02-28T19:23:30;20.38;;;12.90;;
68655;SDS011;55638;51.122;13.606;2023-02-28T19:25:03;21.48;;;13.07;;
68655;SDS011;55638;51.122;13.606;2023-02-28T19:26:36;20.00;;;12.63;;
68655;SDS011;55638;51.122;13.606;2023-02-28T19:28:08;20.05;;;12.50;;
68655;SDS011;55638;51.122;13.606;2023-02-28T19:29:40;20.73;;;13.77;;
68655;SDS011;55638;51.122;13.606;2023-02-28T19:31:12;19.33;;;11.88;;
68655;SDS011;55638;51.122;13.606;2023-02-28T19:32:49;21.10;;;12.75;;
68655;SDS011;55638;51.122;13.606;2023-02-28T19:34:22;17.58;;;12.43;;
68655;SDS011;55638;51.122;13.606;2023-02-28T19:35:54;17.73;;;13.13;;
68655;SDS011;55638;51.122;13.606;2023-02-28T19:37:26;18.70;;;12.55;;
68655;SDS011;55638;51.122;13.606;2023-02-28T19:38:58;19.08;;;12.65;;
68655;SDS011;55638;51.122;13.606;2023-02-28T19:40:30;16.23;;;11.02;;
68655;SDS011;55638;51.122;13.606;2023-02-28T19:42:02;16.30;;;11.45;;
68655;SDS011;55638;51.122;13.606;2023-02-28T19:43:34;16.30;;;9.82;;
68655;SDS011;55638;51.122;13.606;2023-02-28T19:45:07;15.65;;;10.50;;
68655;SDS011;55638;51.122;13.606;2023-02-28T19:46:40;16.52;;;10.57;;
68655;SDS011;55638;51.122;13.606;2023-02-28T19:48:12;16.58;;;11.40;;
68655;SDS011;55638;51.122;13.606;2023-02-28T19:49:44;16.13;;;11.18;;
68655;SDS011;55638;51.122;13.606;2023-02-28T19:51:16;14.80;;;10.55;;
68655;SDS011;55638;51.122;13.606;2023-02-28T19:56:12;19.27;;;12.18;;
68655;SDS011;55638;51.122;13.606;2023-02-28T19:57:44;21.95;;;14.45;;
68655;SDS011;55638;51.122;13.606;2023-02-28T19:59:16;23.83;;;14.93;;
68655;SDS011;55638;51.122;13.606;2023-02-28T20:00:56;22.58;;;15.55;;
68655;SDS011;55638;51.122;13.606;2023-02-28T20:02:28;25.10;;;15.75;;
68655;SDS011;55638;51.122;13.606;2023-02-28T20:04:00;22.42;;;15.50;;
68655;SDS011;55638;51.122;13.606;2023-02-28T20:05:35;20.85;;;14.00;;
68655;SDS011;55638;51.122;13.606;2023-02-28T20:07:08;20.52;;;14.00;;
68655;SDS011;55638;51.122;13.606;2023-02-28T20:08:40;20.27;;;13.10;;
68655;SDS011;55638;51.122;13.606;2023-02-28T20:10:13;17.63;;;12.77;;
68655;SDS011;55638;51.122;13.606;2023-02-28T20:11:45;18.08;;;11.77;;
68655;SDS011;55638;51.122;13.606;2023-02-28T20:13:17;16.98;;;11.68;;
68655;SDS011;55638;51.122;13.606;2023-02-28T20:14:53;16.77;;;12.07;;
68655;SDS011;55638;51.122;13.606;2023-02-28T20:16:28;17.63;;;11.32;;
68655;SDS011;55638;51.122;13.606;2023-02-28T20:18:01;16.52;;;11.82;;
68655;SDS011;55638;51.122;13.606;2023-02-28T20:19:33;19.00;;;13.15;;